createdAt,value
2022-11-28T00:01:31.108Z,10.32
2022-11-28T00:03:58.879Z,7.25
2022-11-28T00:06:27.525Z,9.57
2022-11-28T00:08:58.191Z,5.78
2022-11-28T00:11:26.163Z,7.18
2022-11-28T00:13:54.773Z,6.15
2022-11-28T00:16:23.479Z,4.47
2022-11-28T00:18:52.752Z,7.60
2022-11-28T00:21:20.831Z,9.25
2022-11-28T00:23:49.188Z,3.22
2022-11-28T00:26:26.684Z,7.70
2022-11-28T00:28:56.178Z,7.05
2022-11-28T00:31:27.474Z,7.07
2022-11-28T00:33:56.163Z,3.33
2022-11-28T00:36:24.271Z,8.60
2022-11-28T00:38:52.152Z,8.50
2022-11-28T00:41:23.029Z,6.97
2022-11-28T00:43:51.590Z,4.30
2022-11-28T00:46:20.763Z,9.82
2022-11-28T00:48:49.373Z,10.02
2022-11-28T00:51:18.425Z,8.25
2022-11-28T00:53:48.511Z,11.82
2022-11-28T00:56:19.268Z,10.03
2022-11-28T00:58:49.690Z,7.38
2022-11-28T01:01:30.712Z,3.20
2022-11-28T01:04:01.239Z,7.75
2022-11-28T01:06:38.591Z,5.72
2022-11-28T01:09:26.383Z,5.37
2022-11-28T01:11:54.320Z,8.95
2022-11-28T01:14:23.672Z,7.00
2022-11-28T01:16:51.328Z,6.80
2022-11-28T01:19:19.060Z,7.47
2022-11-28T01:21:47.178Z,6.90
2022-11-28T01:24:14.994Z,8.25
2022-11-28T01:26:43.331Z,4.47
2022-11-28T01:29:11.820Z,3.92
2022-11-28T01:31:39.916Z,6.93
2022-11-28T01:34:07.452Z,5.73
2022-11-28T01:36:34.972Z,8.77
2022-11-28T01:39:02.662Z,5.05
2022-11-28T01:41:30.424Z,9.25
2022-11-28T01:44:03.989Z,3.53
2022-11-28T01:46:32.680Z,5.07
2022-11-28T01:49:11.921Z,8.45
2022-11-28T01:51:42.778Z,3.15
2022-11-28T01:54:10.869Z,5.07
2022-11-28T01:57:03.335Z,6.20
2022-11-28T01:59:37.303Z,7.37
2022-11-28T02:02:09.631Z,7.07
2022-11-28T02:04:37.714Z,5.95
2022-11-28T02:07:05.265Z,5.60
2022-11-28T02:09:32.865Z,8.10
2022-11-28T02:12:19.133Z,5.83
2022-11-28T02:15:20.579Z,9.38
2022-11-28T02:18:05.116Z,7.60
2022-11-28T02:20:38.587Z,5.30
2022-11-28T02:23:08.831Z,6.35
2022-11-28T02:26:01.372Z,8.57
2022-11-28T02:28:48.710Z,4.85
2022-11-28T02:31:16.222Z,7.05
2022-11-28T02:33:52.134Z,6.50
2022-11-28T02:36:30.741Z,7.95
2022-11-28T02:39:04.096Z,8.10
2022-11-28T02:41:35.289Z,7.25
2022-11-28T02:44:32.525Z,9.63
2022-11-28T02:47:06.289Z,6.95
2022-11-28T02:49:57.885Z,8.82
2022-11-28T02:52:31.636Z,9.37
2022-11-28T02:55:00.814Z,7.88
2022-11-28T02:57:46.454Z,7.35
2022-11-28T03:00:26.651Z,8.40
2022-11-28T03:03:21.690Z,5.97
2022-11-28T03:06:02.136Z,5.00
2022-11-28T03:08:54.971Z,6.15
2022-11-28T03:11:22.578Z,5.82
2022-11-28T03:14:04.137Z,6.43
2022-11-28T03:16:58.364Z,7.70
2022-11-28T03:19:31.652Z,5.40
2022-11-28T03:22:02.392Z,5.55
2022-11-28T03:24:48.893Z,5.10
2022-11-28T03:27:30.319Z,4.88
2022-11-28T03:30:06.034Z,6.47
2022-11-28T03:32:37.860Z,6.70
2022-11-28T03:35:18.483Z,4.00
2022-11-28T03:37:54.664Z,10.30
2022-11-28T03:40:31.138Z,6.78
2022-11-28T03:43:04.888Z,7.13
2022-11-28T03:45:38.768Z,3.93
2022-11-28T03:48:16.428Z,4.72
2022-11-28T03:50:53.139Z,6.75
2022-11-28T03:53:31.344Z,6.32
2022-11-28T03:56:13.547Z,6.25
2022-11-28T03:58:53.160Z,7.10
2022-11-28T04:01:23.461Z,8.80
2022-11-28T04:04:08.923Z,7.20
2022-11-28T04:07:00.609Z,6.60
2022-11-28T04:09:37.955Z,11.57
2022-11-28T04:12:34.714Z,6.63
2022-11-28T04:15:08.787Z,5.47
2022-11-28T04:17:46.229Z,8.30
2022-11-28T04:20:21.222Z,12.32
2022-11-28T04:22:54.422Z,9.27
2022-11-28T04:25:24.351Z,9.90
2022-11-28T04:28:00.162Z,9.40
2022-11-28T04:30:27.932Z,7.30
2022-11-28T04:33:02.011Z,6.10
2022-11-28T04:35:37.604Z,8.10
2022-11-28T04:38:07.863Z,4.40
2022-11-28T04:40:41.765Z,4.65
2022-11-28T04:43:17.912Z,4.57
2022-11-28T04:46:09.828Z,4.38
2022-11-28T04:48:37.906Z,5.40
2022-11-28T04:51:22.862Z,12.03
2022-11-28T04:54:07.187Z,6.53
2022-11-28T04:56:43.067Z,5.65
2022-11-28T04:59:12.758Z,5.82
2022-11-28T05:01:43.012Z,7.18
2022-11-28T05:04:10.932Z,10.30
2022-11-28T05:06:38.469Z,6.57
2022-11-28T05:09:06.332Z,5.53
2022-11-28T05:11:33.957Z,6.93
2022-11-28T05:14:01.680Z,4.95
2022-11-28T05:16:29.337Z,8.00
2022-11-28T05:18:57.132Z,5.47
2022-11-28T05:21:24.827Z,8.02
2022-11-28T05:23:52.483Z,6.32
2022-11-28T05:26:21.309Z,7.07
2022-11-28T05:28:51.025Z,6.17
2022-11-28T05:31:21.019Z,7.97
2022-11-28T05:33:48.858Z,5.50
2022-11-28T05:36:17.560Z,6.43
2022-11-28T05:38:45.521Z,6.57
2022-11-28T05:41:25.332Z,5.17
2022-11-28T05:43:53.278Z,5.30
2022-11-28T05:46:20.830Z,7.68
2022-11-28T05:48:48.543Z,7.30
2022-11-28T05:51:16.403Z,9.00
2022-11-28T05:53:44.003Z,5.87
2022-11-28T05:56:15.054Z,9.70
2022-11-28T05:58:43.159Z,6.38
2022-11-28T06:01:21.935Z,9.68
2022-11-28T06:03:49.661Z,2.58
2022-11-28T06:06:20.067Z,6.97
2022-11-28T06:08:49.030Z,7.78
2022-11-28T06:11:17.009Z,6.60
2022-11-28T06:13:46.706Z,9.50
2022-11-28T06:16:17.275Z,5.80
2022-11-28T06:18:44.998Z,8.23
2022-11-28T06:21:14.106Z,6.97
2022-11-28T06:23:42.251Z,7.38
2022-11-28T06:26:12.927Z,6.32
2022-11-28T06:28:41.032Z,9.60
2022-11-28T06:31:13.185Z,11.30
2022-11-28T06:33:41.536Z,7.75
2022-11-28T06:36:10.683Z,5.20
2022-11-28T06:38:38.831Z,7.05
2022-11-28T06:41:10.310Z,8.40
2022-11-28T06:43:38.693Z,6.67
2022-11-28T06:46:15.723Z,6.13
2022-11-28T06:48:44.857Z,8.80
2022-11-28T06:51:13.688Z,6.47
2022-11-28T06:53:41.669Z,6.65
2022-11-28T06:56:12.570Z,7.03
2022-11-28T06:58:41.046Z,8.57
2022-11-28T07:01:13.233Z,6.13
2022-11-28T07:03:41.339Z,7.07
2022-11-28T07:06:09.712Z,4.50
2022-11-28T07:08:37.962Z,7.93
2022-11-28T07:11:15.939Z,7.88
2022-11-28T07:13:46.048Z,10.63
2022-11-28T07:16:17.172Z,8.68
2022-11-28T07:18:45.563Z,7.38
2022-11-28T07:21:14.795Z,5.53
2022-11-28T07:23:43.476Z,6.43
2022-11-28T07:26:12.963Z,6.32
2022-11-28T07:28:40.784Z,8.05
2022-11-28T07:31:20.000Z,12.75
2022-11-28T07:33:49.704Z,9.43
2022-11-28T07:36:23.166Z,7.00
2022-11-28T07:38:56.107Z,6.03
2022-11-28T07:41:26.948Z,7.10
2022-11-28T07:43:57.760Z,8.50
2022-11-28T07:46:26.949Z,10.37
2022-11-28T07:48:54.773Z,7.20
2022-11-28T07:51:28.077Z,9.55
2022-11-28T07:53:55.908Z,7.20
2022-11-28T07:56:35.154Z,7.18
2022-11-28T07:59:12.331Z,8.87
2022-11-28T08:01:40.242Z,10.73
2022-11-28T08:04:09.932Z,12.60
2022-11-28T08:06:40.149Z,9.70
2022-11-28T08:09:08.780Z,7.38
2022-11-28T08:11:36.373Z,7.73
2022-11-28T08:14:05.333Z,8.32
2022-11-28T08:16:33.385Z,9.43
2022-11-28T08:19:02.220Z,10.98
2022-11-28T08:21:33.524Z,10.60
2022-11-28T08:24:02.840Z,8.57
2022-11-28T08:26:32.414Z,6.22
2022-11-28T08:29:01.850Z,8.93
2022-11-28T08:31:32.708Z,9.15
2022-11-28T08:34:03.384Z,11.15
2022-11-28T08:36:31.086Z,11.20
2022-11-28T08:39:23.037Z,9.18
2022-11-28T08:41:50.215Z,7.85
2022-11-28T08:44:18.548Z,9.07
2022-11-28T08:46:46.167Z,8.63
2022-11-28T08:49:13.816Z,9.43
2022-11-28T08:51:41.438Z,11.20
2022-11-28T08:54:09.118Z,7.43
2022-11-28T08:56:36.792Z,9.07
2022-11-28T08:59:04.726Z,10.05
2022-11-28T09:01:32.541Z,11.83
2022-11-28T09:04:00.401Z,12.63
2022-11-28T09:06:28.068Z,10.30
2022-11-28T09:08:55.738Z,8.98
2022-11-28T09:11:23.655Z,7.78
2022-11-28T09:13:51.460Z,6.33
2022-11-28T09:16:20.031Z,6.55
2022-11-28T09:18:47.915Z,9.30
2022-11-28T09:21:16.052Z,10.63
2022-11-28T09:23:45.151Z,8.98
2022-11-28T09:26:16.126Z,12.00
2022-11-28T09:28:44.594Z,9.07
2022-11-28T09:31:13.102Z,9.52
2022-11-28T09:33:41.358Z,12.18
2022-11-28T09:36:17.624Z,11.43
2022-11-28T09:38:46.019Z,13.20
2022-11-28T09:41:55.620Z,13.32
2022-11-28T09:44:53.183Z,11.18
2022-11-28T09:47:25.352Z,12.43
2022-11-28T09:49:58.396Z,14.88
2022-11-28T09:52:32.999Z,8.87
2022-11-28T09:55:11.107Z,22.75
2022-11-28T09:57:47.342Z,30.52
2022-11-28T10:00:23.750Z,26.75
2022-11-28T10:03:19.603Z,23.65
2022-11-28T10:05:59.640Z,12.27
2022-11-28T10:09:02.767Z,6.50
2022-11-28T10:11:42.554Z,6.88
2022-11-28T10:14:47.474Z,10.93
2022-11-28T10:17:36.856Z,9.95
2022-11-28T10:20:27.350Z,11.63
2022-11-28T10:22:57.658Z,10.50
2022-11-28T10:25:31.955Z,8.63
2022-11-28T10:27:59.584Z,9.85
2022-11-28T10:30:34.324Z,8.60
2022-11-28T10:33:11.986Z,8.20
2022-11-28T10:35:47.555Z,5.18
2022-11-28T10:38:17.134Z,8.27
2022-11-28T10:41:11.008Z,8.88
2022-11-28T10:44:00.303Z,6.22
2022-11-28T10:46:30.178Z,5.87
2022-11-28T10:49:34.381Z,6.05
2022-11-28T10:52:13.985Z,4.07
2022-11-28T10:55:12.847Z,5.78
2022-11-28T10:58:07.492Z,5.53
2022-11-28T11:00:36.657Z,5.90
2022-11-28T11:03:06.049Z,7.82
2022-11-28T11:05:36.307Z,8.88
2022-11-28T11:08:18.034Z,5.90
2022-11-28T11:10:52.909Z,8.23
2022-11-28T11:13:26.578Z,5.03
2022-11-28T11:16:07.532Z,5.53
2022-11-28T11:18:39.847Z,5.30
2022-11-28T11:21:22.444Z,4.72
2022-11-28T11:24:11.009Z,5.80
2022-11-28T11:26:44.674Z,5.90
2022-11-28T11:29:30.561Z,4.60
2022-11-28T11:32:03.654Z,10.27
2022-11-28T11:34:36.997Z,6.72
2022-11-28T11:37:29.301Z,4.93
2022-11-28T11:39:56.981Z,6.70
2022-11-28T11:42:32.261Z,6.70
2022-11-28T11:45:25.362Z,5.07
2022-11-28T11:47:53.121Z,5.55
2022-11-28T11:50:24.403Z,6.13
2022-11-28T11:53:02.631Z,9.07
2022-11-28T11:55:32.805Z,5.40
2022-11-28T11:58:05.833Z,5.22
2022-11-28T12:00:40.078Z,4.72
2022-11-28T12:03:35.689Z,6.47
2022-11-28T12:06:21.244Z,7.17
2022-11-28T12:08:54.782Z,6.32
2022-11-28T12:11:26.787Z,6.68
2022-11-28T12:14:04.782Z,7.15
2022-11-28T12:16:52.836Z,6.38
2022-11-28T12:19:32.981Z,6.47
2022-11-28T12:22:06.650Z,5.82
2022-11-28T12:25:05.262Z,8.13
2022-11-28T12:27:53.765Z,8.13
2022-11-28T12:30:46.413Z,5.70
2022-11-28T12:33:39.306Z,4.83
2022-11-28T12:36:25.631Z,5.65
2022-11-28T12:39:32.021Z,6.43
2022-11-28T12:42:06.082Z,5.70
2022-11-28T12:45:01.133Z,7.18
2022-11-28T12:47:47.138Z,6.00
2022-11-28T12:50:40.956Z,5.35
2022-11-28T12:53:33.119Z,6.57
2022-11-28T12:56:03.771Z,8.18
2022-11-28T12:58:41.082Z,8.52
2022-11-28T13:01:33.385Z,8.20
2022-11-28T13:04:31.090Z,6.57
2022-11-28T13:07:27.989Z,6.32
2022-11-28T13:10:19.920Z,7.10
2022-11-28T13:13:07.228Z,7.07
2022-11-28T13:15:34.881Z,4.67
2022-11-28T13:18:21.092Z,12.95
2022-11-28T13:21:18.124Z,10.10
2022-11-28T13:24:11.070Z,10.27
2022-11-28T13:26:42.980Z,7.22
2022-11-28T13:29:53.455Z,9.10
2022-11-28T13:32:45.558Z,7.93
2022-11-28T13:35:16.391Z,11.68
2022-11-28T13:41:04.674Z,8.88
2022-11-28T13:43:41.357Z,8.93
2022-11-28T13:46:10.026Z,7.25
2022-11-28T13:51:33.725Z,7.97
2022-11-28T13:54:22.387Z,9.63
2022-11-28T13:57:08.184Z,6.87
2022-11-28T13:59:37.055Z,8.35
2022-11-28T14:02:20.336Z,9.15
2022-11-28T14:04:48.593Z,9.90
2022-11-28T14:07:32.108Z,8.00
2022-11-28T14:10:12.601Z,7.43
2022-11-28T14:13:24.786Z,7.70
2022-11-28T14:16:10.511Z,11.05
2022-11-28T14:18:59.465Z,8.00
2022-11-28T14:21:59.364Z,6.68
2022-11-28T14:24:42.610Z,6.87
2022-11-28T14:27:23.386Z,7.78
2022-11-28T14:29:54.729Z,8.80
2022-11-28T14:32:40.214Z,10.43
2022-11-28T14:35:52.366Z,8.20
2022-11-28T14:38:35.458Z,10.43
2022-11-28T14:41:12.002Z,14.52
2022-11-28T14:43:44.795Z,9.05
2022-11-28T14:46:15.722Z,13.25
2022-11-28T14:48:58.644Z,8.50
2022-11-28T14:51:48.237Z,13.87
2022-11-28T14:54:32.832Z,10.85
2022-11-28T14:57:00.646Z,12.32
2022-11-28T14:59:37.556Z,10.90
2022-11-28T15:02:05.339Z,14.13
2022-11-28T15:04:47.137Z,10.83
2022-11-28T15:07:28.852Z,12.02
2022-11-28T15:10:21.728Z,12.18
2022-11-28T15:13:10.870Z,11.85
2022-11-28T15:15:48.290Z,12.15
2022-11-28T15:18:19.174Z,17.70
2022-11-28T15:20:58.816Z,13.27
2022-11-28T15:23:35.099Z,16.90
2022-11-28T15:26:03.869Z,11.40
2022-11-28T15:28:35.672Z,16.58
2022-11-28T15:31:05.964Z,18.83
2022-11-28T15:33:34.421Z,12.70
2022-11-28T15:36:30.276Z,11.40
2022-11-28T15:38:58.865Z,13.63
2022-11-28T15:41:28.063Z,13.35
2022-11-28T15:43:57.044Z,15.27
2022-11-28T15:46:34.845Z,17.02
2022-11-28T15:49:04.668Z,16.55
2022-11-28T15:51:37.778Z,12.65
2022-11-28T15:54:31.127Z,13.95
2022-11-28T15:56:59.866Z,13.10
2022-11-28T15:59:28.844Z,16.52
2022-11-28T16:02:02.405Z,12.30
2022-11-28T16:04:31.256Z,10.18
2022-11-28T16:07:01.278Z,12.75
2022-11-28T16:09:35.877Z,16.10
2022-11-28T16:12:05.372Z,13.88
2022-11-28T16:14:44.486Z,15.57
2022-11-28T16:17:20.672Z,14.38
2022-11-28T16:19:51.456Z,13.73
2022-11-28T16:22:21.662Z,15.53
2022-11-28T16:24:52.009Z,14.98
2022-11-28T16:27:41.576Z,15.25
2022-11-28T16:30:27.635Z,11.80
2022-11-28T16:32:56.852Z,16.92
2022-11-28T16:35:29.397Z,17.43
2022-11-28T16:38:23.748Z,12.68
2022-11-28T16:40:59.070Z,14.75
2022-11-28T16:43:40.799Z,15.20
2022-11-28T16:46:20.295Z,15.38
2022-11-28T16:48:54.326Z,17.07
2022-11-28T16:51:21.988Z,11.15
2022-11-28T16:53:51.905Z,18.48
2022-11-28T16:56:31.432Z,12.88
2022-11-28T16:59:07.856Z,19.13
2022-11-28T17:01:36.255Z,13.17
2022-11-28T17:04:04.797Z,12.52
2022-11-28T17:06:36.941Z,14.23
2022-11-28T17:09:07.568Z,17.65
2022-11-28T17:11:38.823Z,17.30
2022-11-28T17:14:13.095Z,14.67
2022-11-28T17:16:42.449Z,19.15
2022-11-28T17:19:10.211Z,16.42
2022-11-28T17:21:44.037Z,20.75
2022-11-28T17:24:24.173Z,13.88
2022-11-28T17:27:03.207Z,18.27
2022-11-28T17:29:31.030Z,16.80
2022-11-28T17:31:59.694Z,19.33
2022-11-28T17:34:31.430Z,18.60
2022-11-28T17:37:00.546Z,17.55
2022-11-28T17:39:29.084Z,16.50
2022-11-28T17:41:59.005Z,19.30
2022-11-28T17:44:30.682Z,16.20
2022-11-28T17:47:01.763Z,18.10
2022-11-28T17:49:30.867Z,19.58
2022-11-28T17:51:59.327Z,22.37
2022-11-28T17:54:27.655Z,22.83
2022-11-28T17:56:55.722Z,19.65
2022-11-28T17:59:25.082Z,20.55
2022-11-28T18:01:52.998Z,19.83
2022-11-28T18:04:24.696Z,15.03
2022-11-28T18:06:52.837Z,17.15
2022-11-28T18:09:20.436Z,18.02
2022-11-28T18:11:48.024Z,21.85
2022-11-28T18:14:19.499Z,17.23
2022-11-28T18:16:48.098Z,14.97
2022-11-28T18:19:15.829Z,19.83
2022-11-28T18:21:43.685Z,16.15
2022-11-28T18:24:11.356Z,16.38
2022-11-28T18:26:39.635Z,20.42
2022-11-28T18:29:08.623Z,18.30
2022-11-28T18:31:36.462Z,19.65
2022-11-28T18:34:07.806Z,22.48
2022-11-28T18:36:38.247Z,19.90
2022-11-28T18:39:12.136Z,17.98
2022-11-28T18:41:40.519Z,21.80
2022-11-28T18:44:10.863Z,17.40
2022-11-28T18:46:39.675Z,19.38
2022-11-28T18:49:08.360Z,20.33
2022-11-28T18:51:36.816Z,21.55
2022-11-28T18:54:05.975Z,18.30
2022-11-28T18:56:35.674Z,20.95
2022-11-28T18:59:04.440Z,21.00
2022-11-28T19:01:34.639Z,20.17
2022-11-28T19:04:07.759Z,19.05
2022-11-28T19:06:38.526Z,21.57
2022-11-28T19:09:09.608Z,21.35
2022-11-28T19:11:38.424Z,22.70
2022-11-28T19:14:07.956Z,22.98
2022-11-28T19:16:37.793Z,23.50
2022-11-28T19:19:06.298Z,22.53
2022-11-28T19:21:36.238Z,21.55
2022-11-28T19:24:05.325Z,21.95
2022-11-28T19:26:34.560Z,18.85
2022-11-28T19:29:02.959Z,19.52
2022-11-28T19:31:32.891Z,21.17
2022-11-28T19:34:02.209Z,17.65
2022-11-28T19:36:34.823Z,21.48
2022-11-28T19:39:04.066Z,21.92
2022-11-28T19:41:32.406Z,21.92
2022-11-28T19:44:00.365Z,22.87
2022-11-28T19:46:35.122Z,19.48
2022-11-28T19:49:06.234Z,21.10
2022-11-28T19:51:35.147Z,18.48
2022-11-28T19:54:03.803Z,16.48
2022-11-28T19:56:32.730Z,21.53
2022-11-28T19:59:00.813Z,17.95
2022-11-28T20:01:29.244Z,18.38
2022-11-28T20:03:59.352Z,25.67
2022-11-28T20:06:29.687Z,22.88
2022-11-28T20:09:01.408Z,44.67
2022-11-28T20:11:32.507Z,51.08
2022-11-28T20:14:01.648Z,57.53
2022-11-28T20:16:31.378Z,61.28
2022-11-28T20:19:00.884Z,65.65
2022-11-28T20:21:29.504Z,52.50
2022-11-28T20:24:04.576Z,42.45
2022-11-28T20:26:38.392Z,38.10
2022-11-28T20:29:07.602Z,42.08
2022-11-28T20:31:38.620Z,38.78
2022-11-28T20:34:06.654Z,30.57
2022-11-28T20:36:34.624Z,29.15
2022-11-28T20:39:02.495Z,25.92
2022-11-28T20:41:30.297Z,36.10
2022-11-28T20:44:00.472Z,32.35
2022-11-28T20:46:31.686Z,22.90
2022-11-28T20:49:03.332Z,23.23
2022-11-28T20:51:32.629Z,23.35
2022-11-28T20:54:01.140Z,24.50
2022-11-28T20:56:35.899Z,24.60
2022-11-28T20:59:16.136Z,25.80
2022-11-28T21:01:44.087Z,23.95
2022-11-28T21:04:14.421Z,23.27
2022-11-28T21:06:44.042Z,21.73
2022-11-28T21:09:12.658Z,29.02
2022-11-28T21:14:29.230Z,18.15
2022-11-28T21:16:58.169Z,21.10
2022-11-28T21:19:26.940Z,19.98
2022-11-28T21:21:54.671Z,18.23
2022-11-28T21:24:22.232Z,16.70
2022-11-28T21:26:54.073Z,19.02
2022-11-28T21:29:23.512Z,19.38
2022-11-28T21:31:51.355Z,20.77
2022-11-28T21:34:19.491Z,19.88
2022-11-28T21:36:47.669Z,18.33
2022-11-28T21:39:17.599Z,18.67
2022-11-28T21:41:45.607Z,19.33
2022-11-28T21:44:13.352Z,17.15
2022-11-28T21:46:41.143Z,19.65
2022-11-28T21:49:08.657Z,17.83
2022-11-28T21:51:40.462Z,17.83
2022-11-28T21:54:10.727Z,13.10
2022-11-28T21:56:38.711Z,16.95
2022-11-28T21:59:06.560Z,15.77
2022-11-28T22:01:34.371Z,16.87
2022-11-28T22:04:03.042Z,15.93
2022-11-28T22:06:33.010Z,22.55
2022-11-28T22:09:08.686Z,20.42
2022-11-28T22:11:39.341Z,15.80
2022-11-28T22:14:07.030Z,18.13
2022-11-28T22:16:34.648Z,18.98
2022-11-28T22:19:04.170Z,15.20
2022-11-28T22:24:19.493Z,14.25
2022-11-28T22:26:47.608Z,14.93
2022-11-28T22:29:15.353Z,13.95
2022-11-28T22:31:43.500Z,14.80
2022-11-28T22:34:11.628Z,13.95
2022-11-28T22:36:39.846Z,16.35
2022-11-28T22:39:10.910Z,17.70
2022-11-28T22:41:38.775Z,13.43
2022-11-28T22:44:06.608Z,20.95
2022-11-28T22:46:34.455Z,19.25
2022-11-28T22:49:02.456Z,19.08
2022-11-28T22:51:32.121Z,20.90
2022-11-28T22:54:01.519Z,35.75
2022-11-28T22:56:31.666Z,82.88
2022-11-28T22:58:59.978Z,69.05
2022-11-28T23:01:30.921Z,108.82
2022-11-28T23:03:59.501Z,103.93
2022-11-28T23:06:30.267Z,99.68
2022-11-28T23:08:59.444Z,82.28
2022-11-28T23:11:30.957Z,78.13
2022-11-28T23:14:00.140Z,110.07
2022-11-28T23:16:34.531Z,85.93
2022-11-28T23:19:07.303Z,83.68
2022-11-28T23:21:37.960Z,51.45
2022-11-28T23:24:07.022Z,45.60
2022-11-28T23:26:35.248Z,66.65
2022-11-28T23:29:05.011Z,45.27
2022-11-28T23:31:37.049Z,52.78
2022-11-28T23:34:06.351Z,23.73
2022-11-28T23:36:41.777Z,31.15
2022-11-28T23:39:13.879Z,22.52
2022-11-28T23:41:41.948Z,30.53
2022-11-28T23:44:11.961Z,68.40
2022-11-28T23:46:40.271Z,37.92
2022-11-28T23:49:08.851Z,26.30
2022-11-28T23:51:37.146Z,24.48
2022-11-28T23:54:04.881Z,17.13
2022-11-28T23:56:35.691Z,17.17
2022-11-28T23:59:06.126Z,21.23
